createdAt,value
2019-03-03T00:00:04.659Z,0.00
2019-03-03T00:01:04.774Z,0.00
2019-03-03T00:02:04.637Z,0.00
2019-03-03T00:03:04.720Z,0.00
2019-03-03T00:04:04.614Z,0.00
2019-03-03T00:05:04.696Z,0.00
2019-03-03T00:06:04.595Z,0.00
2019-03-03T00:07:04.618Z,0.00
2019-03-03T00:08:04.574Z,0.00
2019-03-03T00:09:04.654Z,0.00
2019-03-03T00:10:04.560Z,0.00
2019-03-03T00:11:04.635Z,0.00
2019-03-03T00:12:04.529Z,0.00
2019-03-03T00:13:04.548Z,0.00
2019-03-03T00:14:04.531Z,0.00
2019-03-03T00:15:04.564Z,0.00
2019-03-03T00:16:04.480Z,0.00
2019-03-03T00:17:04.575Z,0.00
2019-03-03T00:18:04.465Z,0.00
2019-03-03T00:19:04.515Z,0.00
2019-03-03T00:20:04.441Z,0.00
2019-03-03T00:21:04.499Z,0.00
2019-03-03T00:22:04.430Z,0.00
2019-03-03T00:23:04.512Z,0.00
2019-03-03T00:24:04.434Z,0.00
2019-03-03T00:25:04.426Z,0.00
2019-03-03T00:26:04.373Z,0.00
2019-03-03T00:27:04.445Z,0.00
2019-03-03T00:28:04.362Z,0.00
2019-03-03T00:29:04.588Z,0.00
2019-03-03T00:30:04.331Z,0.00
2019-03-03T00:31:04.367Z,0.00
2019-03-03T00:32:04.308Z,0.00
2019-03-03T00:33:04.380Z,0.00
2019-03-03T00:34:04.343Z,0.00
2019-03-03T00:35:04.397Z,0.00
2019-03-03T00:36:04.272Z,0.00
2019-03-03T00:37:04.303Z,0.00
2019-03-03T00:38:04.274Z,0.00
2019-03-03T00:39:04.353Z,0.00
2019-03-03T00:40:04.217Z,0.00
2019-03-03T00:41:04.335Z,0.00
2019-03-03T00:42:04.207Z,0.00
2019-03-03T00:43:04.247Z,0.00
2019-03-03T00:44:04.203Z,0.00
2019-03-03T00:45:04.263Z,0.00
2019-03-03T00:46:04.159Z,0.00
2019-03-03T00:47:04.168Z,0.00
2019-03-03T00:48:04.136Z,0.00
2019-03-03T00:49:04.186Z,0.00
2019-03-03T00:50:04.137Z,0.00
2019-03-03T00:51:04.196Z,0.00
2019-03-03T00:52:04.090Z,0.00
2019-03-03T00:53:04.107Z,0.00
2019-03-03T00:54:04.061Z,0.00
2019-03-03T00:55:04.154Z,0.00
2019-03-03T00:56:04.040Z,0.00
2019-03-03T00:57:04.140Z,0.00
2019-03-03T00:58:04.026Z,0.00
2019-03-03T00:59:04.049Z,0.00
2019-03-03T01:00:04.000Z,0.00
2019-03-03T01:01:04.099Z,0.00
2019-03-03T01:02:03.977Z,0.00
2019-03-03T01:03:04.078Z,0.00
2019-03-03T01:04:03.951Z,0.00
2019-03-03T01:05:04.056Z,0.00
2019-03-03T01:06:03.954Z,0.00
2019-03-03T01:07:04.007Z,0.00
2019-03-03T01:08:03.909Z,0.00
2019-03-03T01:09:04.014Z,0.00
2019-03-03T01:10:03.918Z,0.00
2019-03-03T01:11:03.973Z,0.00
2019-03-03T01:12:03.871Z,0.00
2019-03-03T01:13:03.942Z,0.00
2019-03-03T01:14:03.847Z,0.00
2019-03-03T01:15:04.002Z,0.00
2019-03-03T01:16:03.820Z,0.00
2019-03-03T01:17:03.864Z,0.00
2019-03-03T01:18:03.812Z,0.00
2019-03-03T01:19:03.882Z,0.00
2019-03-03T01:20:03.780Z,0.00
2019-03-03T01:21:03.823Z,0.00
2019-03-03T01:22:03.752Z,0.00
2019-03-03T01:23:03.811Z,0.00
2019-03-03T01:24:03.729Z,0.00
2019-03-03T01:25:03.855Z,0.00
2019-03-03T01:26:03.706Z,0.00
2019-03-03T01:27:03.773Z,0.00
2019-03-03T01:28:03.688Z,0.00
2019-03-03T01:29:03.748Z,0.00
2019-03-03T01:30:03.667Z,0.00
2019-03-03T01:31:03.762Z,0.00
2019-03-03T01:32:03.668Z,0.00
2019-03-03T01:33:03.670Z,0.00
2019-03-03T01:34:03.638Z,0.00
2019-03-03T01:35:03.689Z,0.00
2019-03-03T01:36:03.596Z,0.00
2019-03-03T01:37:03.744Z,0.00
2019-03-03T01:38:03.577Z,0.00
2019-03-03T01:39:03.617Z,0.00
2019-03-03T01:40:03.565Z,0.00
2019-03-03T01:41:03.622Z,0.00
2019-03-03T01:42:03.564Z,0.00
2019-03-03T01:43:03.641Z,0.00
2019-03-03T01:44:03.526Z,0.00
2019-03-03T01:45:03.561Z,0.00
2019-03-03T01:46:03.490Z,0.00
2019-03-03T01:47:03.595Z,0.00
2019-03-03T01:48:03.466Z,0.00
2019-03-03T01:49:03.579Z,0.00
2019-03-03T01:50:03.441Z,0.00
2019-03-03T01:51:03.486Z,0.00
2019-03-03T01:52:03.470Z,0.00
2019-03-03T01:53:03.500Z,0.00
2019-03-03T01:54:03.399Z,0.00
2019-03-03T01:55:03.415Z,0.00
2019-03-03T01:56:03.379Z,0.00
2019-03-03T01:58:04.508Z,0.00
2019-03-03T01:59:03.440Z,0.00
2019-03-03T02:00:03.333Z,0.00
2019-03-03T02:01:03.352Z,0.00
2019-03-03T02:02:03.311Z,0.00
2019-03-03T02:03:03.403Z,0.00
2019-03-03T02:04:03.285Z,0.00
2019-03-03T02:05:03.380Z,0.00
2019-03-03T02:06:03.268Z,0.00
2019-03-03T02:07:03.290Z,0.00
2019-03-03T02:08:03.269Z,0.00
2019-03-03T02:09:03.338Z,0.00
2019-03-03T02:10:03.221Z,0.00
2019-03-03T02:11:03.325Z,0.00
2019-03-03T02:12:03.198Z,0.00
2019-03-03T02:13:03.263Z,0.00
2019-03-03T02:14:03.180Z,0.00
2019-03-03T02:15:03.243Z,0.00
2019-03-03T02:16:03.154Z,0.00
2019-03-03T02:17:03.259Z,0.00
2019-03-03T02:18:03.164Z,0.00
2019-03-03T02:19:03.208Z,0.00
2019-03-03T02:20:03.117Z,0.00
2019-03-03T02:21:03.183Z,0.00
2019-03-03T02:22:03.087Z,0.00
2019-03-03T02:23:03.245Z,0.00
2019-03-03T02:24:03.095Z,0.00
2019-03-03T02:25:03.108Z,0.00
2019-03-03T02:26:03.083Z,0.00
2019-03-03T02:27:03.131Z,0.00
2019-03-03T02:28:03.027Z,0.00
2019-03-03T02:29:03.169Z,0.00
2019-03-03T02:30:02.998Z,0.00
2019-03-03T02:31:03.054Z,0.00
2019-03-03T02:32:02.979Z,0.00
2019-03-03T02:33:03.099Z,0.00
2019-03-03T02:34:02.961Z,0.00
2019-03-03T02:35:03.109Z,0.00
2019-03-03T02:36:02.934Z,0.00
2019-03-03T02:37:02.994Z,0.00
2019-03-03T02:38:02.927Z,0.00
2019-03-03T02:39:03.006Z,0.00
2019-03-03T02:40:02.921Z,0.00
2019-03-03T02:41:02.913Z,0.00
2019-03-03T02:42:02.905Z,0.00
2019-03-03T02:43:02.957Z,0.00
2019-03-03T02:44:02.875Z,0.00
2019-03-03T02:45:02.942Z,0.00
2019-03-03T02:46:02.831Z,0.00
2019-03-03T02:47:02.857Z,0.00
2019-03-03T02:48:02.820Z,0.00
2019-03-03T02:49:02.909Z,0.00
2019-03-03T02:50:02.805Z,0.00
2019-03-03T02:51:02.895Z,0.00
2019-03-03T02:52:02.757Z,0.00
2019-03-03T02:53:02.800Z,0.00
2019-03-03T02:54:02.786Z,0.00
2019-03-03T02:55:02.870Z,0.00
2019-03-03T02:56:02.721Z,0.00
2019-03-03T02:57:02.821Z,0.00
2019-03-03T02:58:02.693Z,0.00
2019-03-03T02:59:02.733Z,0.00
2019-03-03T03:00:02.700Z,0.00
2019-03-03T03:01:02.753Z,0.00
2019-03-03T03:02:02.650Z,0.00
2019-03-03T03:03:02.762Z,0.00
2019-03-03T03:04:02.625Z,0.00
2019-03-03T03:05:02.711Z,0.00
2019-03-03T03:06:02.602Z,0.00
2019-03-03T03:07:02.686Z,0.00
2019-03-03T03:08:02.586Z,0.00
2019-03-03T03:09:02.603Z,0.00
2019-03-03T03:10:02.596Z,0.00
2019-03-03T03:11:02.613Z,0.00
2019-03-03T03:12:02.546Z,0.00
2019-03-03T03:13:02.625Z,0.00
2019-03-03T03:14:02.518Z,0.00
2019-03-03T03:15:02.540Z,0.00
2019-03-03T03:16:02.518Z,0.00
2019-03-03T03:17:02.549Z,0.00
2019-03-03T03:18:02.467Z,0.00
2019-03-03T03:19:02.564Z,0.00
2019-03-03T03:20:02.454Z,0.00
2019-03-03T03:21:02.582Z,0.00
2019-03-03T03:22:02.484Z,0.00
2019-03-03T03:23:02.503Z,0.00
2019-03-03T03:24:02.408Z,0.00
2019-03-03T03:25:02.538Z,0.00
2019-03-03T03:26:02.408Z,0.00
2019-03-03T03:27:02.418Z,0.00
2019-03-03T03:28:02.383Z,0.00
2019-03-03T03:29:02.429Z,0.00
2019-03-03T03:30:02.349Z,0.00
2019-03-03T03:31:02.474Z,0.00
2019-03-03T03:32:02.356Z,0.00
2019-03-03T03:33:02.358Z,0.00
2019-03-03T03:34:02.297Z,0.00
2019-03-03T03:35:02.382Z,0.00
2019-03-03T03:36:02.305Z,0.00
2019-03-03T03:37:02.381Z,0.00
2019-03-03T03:38:02.252Z,0.00
2019-03-03T03:39:02.305Z,0.00
2019-03-03T03:40:02.230Z,0.00
2019-03-03T03:41:02.338Z,0.00
2019-03-03T03:42:02.206Z,0.00
2019-03-03T03:43:02.321Z,0.00
2019-03-03T03:44:02.184Z,0.00
2019-03-03T03:45:02.236Z,0.00
2019-03-03T03:46:02.188Z,0.00
2019-03-03T03:47:02.276Z,0.00
2019-03-03T03:48:02.141Z,0.00
2019-03-03T03:49:02.158Z,0.00
2019-03-03T03:50:02.122Z,0.00
2019-03-03T03:51:02.179Z,0.00
2019-03-03T03:52:02.129Z,0.00
2019-03-03T03:53:02.201Z,0.00
2019-03-03T03:54:02.076Z,0.00
2019-03-03T03:55:02.098Z,0.00
2019-03-03T03:56:02.062Z,0.00
2019-03-03T03:57:02.147Z,0.00
2019-03-03T03:58:02.031Z,0.00
2019-03-03T03:59:02.124Z,0.00
2019-03-03T04:00:02.014Z,0.00
2019-03-03T04:01:02.041Z,0.00
2019-03-03T04:02:02.019Z,0.00
2019-03-03T04:03:02.050Z,0.00
2019-03-03T04:04:01.961Z,0.00
2019-03-03T04:05:02.064Z,0.00
2019-03-03T04:06:01.939Z,0.00
2019-03-03T04:07:02.005Z,0.00
2019-03-03T04:08:01.922Z,0.00
2019-03-03T04:09:02.203Z,0.00
2019-03-03T04:10:01.916Z,0.00
2019-03-03T04:12:03.040Z,0.00
2019-03-03T04:13:01.926Z,0.00
2019-03-03T04:14:01.858Z,0.00
2019-03-03T04:15:01.932Z,0.00
2019-03-03T04:16:01.841Z,0.00
2019-03-03T04:17:01.974Z,0.00
2019-03-03T04:18:01.810Z,0.00
2019-03-03T04:19:01.862Z,0.00
2019-03-03T04:20:01.851Z,0.00
2019-03-03T04:21:01.871Z,0.00
2019-03-03T04:22:01.765Z,0.00
2019-03-03T04:23:01.816Z,0.00
2019-03-03T04:24:01.745Z,0.00
2019-03-03T04:25:01.801Z,0.00
2019-03-03T04:26:01.719Z,0.00
2019-03-03T04:27:01.818Z,0.00
2019-03-03T04:28:01.722Z,0.00
2019-03-03T04:29:01.720Z,0.00
2019-03-03T04:31:02.896Z,0.00
2019-03-03T04:32:01.785Z,0.00
2019-03-03T04:33:01.914Z,0.00
2019-03-03T04:34:01.763Z,0.00
2019-03-03T04:35:01.785Z,0.00
2019-03-03T04:36:01.749Z,0.00
2019-03-03T04:37:01.677Z,0.00
2019-03-03T04:38:01.620Z,0.00
2019-03-03T04:39:01.607Z,0.00
2019-03-03T04:40:01.605Z,0.00
2019-03-03T04:41:01.568Z,0.00
2019-03-03T04:43:02.698Z,0.00
2019-03-03T04:44:01.624Z,0.00
2019-03-03T04:45:01.515Z,0.00
2019-03-03T04:46:01.534Z,0.00
2019-03-03T04:47:01.484Z,0.00
2019-03-03T04:48:01.582Z,0.00
2019-03-03T04:49:01.467Z,0.00
2019-03-03T04:50:01.564Z,0.00
2019-03-03T04:51:01.448Z,0.00
2019-03-03T04:52:01.470Z,0.00
2019-03-03T04:53:01.506Z,0.00
2019-03-03T04:54:01.484Z,0.00
2019-03-03T04:55:01.397Z,0.00
2019-03-03T04:56:01.502Z,0.00
2019-03-03T04:57:01.387Z,0.00
2019-03-03T04:58:01.456Z,0.00
2019-03-03T04:59:01.354Z,0.00
2019-03-03T05:00:01.424Z,0.00
2019-03-03T05:01:01.336Z,0.00
2019-03-03T05:02:01.438Z,0.00
2019-03-03T05:03:01.340Z,0.00
2019-03-03T05:04:01.353Z,0.00
2019-03-03T05:05:01.295Z,0.00
2019-03-03T05:06:01.377Z,0.00
2019-03-03T05:07:01.271Z,0.00
2019-03-03T05:08:01.416Z,0.00
2019-03-03T05:09:01.264Z,0.00
2019-03-03T05:10:01.290Z,0.00
2019-03-03T05:11:01.224Z,0.00
2019-03-03T05:12:01.312Z,0.00
2019-03-03T05:13:01.201Z,0.00
2019-03-03T05:14:01.242Z,0.00
2019-03-03T05:15:01.177Z,0.00
2019-03-03T05:16:01.228Z,0.00
2019-03-03T05:17:01.155Z,0.00
2019-03-03T05:18:01.246Z,0.00
2019-03-03T05:19:01.179Z,0.00
2019-03-03T05:20:01.156Z,0.00
2019-03-03T05:21:01.119Z,0.00
2019-03-03T05:22:01.168Z,0.00
2019-03-03T05:23:01.086Z,0.00
2019-03-03T05:24:01.220Z,0.00
2019-03-03T05:25:01.069Z,0.00
2019-03-03T05:26:01.097Z,0.00
2019-03-03T05:27:01.049Z,0.00
2019-03-03T05:28:01.110Z,0.00
2019-03-03T05:29:01.021Z,0.00
2019-03-03T05:30:01.148Z,0.00
2019-03-03T05:31:01.000Z,0.00
2019-03-03T05:32:01.030Z,0.00
2019-03-03T05:33:00.976Z,0.00
2019-03-03T05:34:01.046Z,0.00
2019-03-03T05:35:00.981Z,0.00
2019-03-03T05:36:01.059Z,0.00
2019-03-03T05:37:00.931Z,0.00
2019-03-03T05:38:00.972Z,0.00
2019-03-03T05:39:00.904Z,0.00
2019-03-03T05:40:01.124Z,0.00
2019-03-03T05:41:00.886Z,0.00
2019-03-03T05:42:00.894Z,0.00
2019-03-03T05:43:00.880Z,0.00
2019-03-03T05:44:00.917Z,0.00
2019-03-03T05:45:00.865Z,0.00
2019-03-03T05:46:00.923Z,0.00
2019-03-03T05:47:00.832Z,0.00
2019-03-03T05:48:00.873Z,0.00
2019-03-03T05:49:00.800Z,0.00
2019-03-03T05:50:00.885Z,0.00
2019-03-03T05:51:00.773Z,0.00
2019-03-03T05:52:00.895Z,0.00
2019-03-03T05:53:00.762Z,0.00
2019-03-03T05:54:00.774Z,0.00
2019-03-03T05:55:00.768Z,0.00
2019-03-03T05:56:00.787Z,0.00
2019-03-03T05:57:00.734Z,0.00
2019-03-03T05:58:00.810Z,0.00
2019-03-03T05:59:00.692Z,0.00
2019-03-03T06:00:00.745Z,0.00
2019-03-03T06:01:00.683Z,0.00
2019-03-03T06:02:00.727Z,0.00
2019-03-03T06:03:00.642Z,0.00
2019-03-03T06:04:00.740Z,0.00
2019-03-03T06:05:00.700Z,0.00
2019-03-03T06:06:00.661Z,0.00
2019-03-03T06:07:00.594Z,0.00
2019-03-03T06:08:00.703Z,0.00
2019-03-03T06:09:00.618Z,0.00
2019-03-03T06:10:00.616Z,0.00
2019-03-03T06:11:00.552Z,0.00
2019-03-03T06:12:00.598Z,0.00
2019-03-03T06:13:00.558Z,0.00
2019-03-03T06:14:00.612Z,0.00
2019-03-03T06:15:00.579Z,0.00
2019-03-03T06:16:00.518Z,0.00
2019-03-03T06:17:00.513Z,0.00
2019-03-03T06:18:00.532Z,0.00
2019-03-03T06:19:00.460Z,0.00
2019-03-03T06:20:00.548Z,0.00
2019-03-03T06:21:00.476Z,0.00
2019-03-03T06:22:00.488Z,0.00
2019-03-03T06:23:00.445Z,0.00
2019-03-03T06:24:00.471Z,0.00
2019-03-03T06:25:00.455Z,0.00
2019-03-03T06:26:00.517Z,0.00
2019-03-03T06:27:00.376Z,0.00
2019-03-03T06:28:00.434Z,0.00
2019-03-03T06:29:00.348Z,0.00
2019-03-03T06:30:00.417Z,0.00
2019-03-03T06:31:00.340Z,0.00
2019-03-03T06:32:00.458Z,0.00
2019-03-03T06:33:00.307Z,0.00
2019-03-03T06:34:00.336Z,0.00
2019-03-03T06:35:00.328Z,0.00
2019-03-03T06:36:00.351Z,0.00
2019-03-03T06:37:00.292Z,0.00
2019-03-03T06:38:00.399Z,0.00
2019-03-03T06:39:00.244Z,5.62
2019-03-03T06:40:00.370Z,5.62
2019-03-03T06:41:00.218Z,5.62
2019-03-03T06:42:00.322Z,5.62
2019-03-03T06:43:00.189Z,5.62
2019-03-03T06:44:00.304Z,5.62
2019-03-03T06:45:00.316Z,5.62
2019-03-03T06:46:00.218Z,5.62
2019-03-03T06:47:00.184Z,5.62
2019-03-03T06:48:00.231Z,5.62
2019-03-03T06:49:00.168Z,5.62
2019-03-03T06:50:00.294Z,5.62
2019-03-03T06:51:00.107Z,5.62
2019-03-03T06:52:00.153Z,5.62
2019-03-03T06:53:00.117Z,5.62
2019-03-03T06:54:00.168Z,5.62
2019-03-03T06:55:00.099Z,5.62
2019-03-03T06:56:00.133Z,5.62
2019-03-03T06:57:00.043Z,5.62
2019-03-03T06:58:00.127Z,5.62
2019-03-03T06:59:00.034Z,5.62
2019-03-03T07:00:00.299Z,5.62
2019-03-03T07:01:00.005Z,5.62
2019-03-03T07:02:00.025Z,5.62
2019-03-03T07:03:00.004Z,5.62
2019-03-03T07:04:00.142Z,11.25
2019-03-03T07:04:59.947Z,11.25
2019-03-03T07:06:00.051Z,11.25
2019-03-03T07:06:59.924Z,11.25
2019-03-03T07:07:59.990Z,11.25
2019-03-03T07:08:59.904Z,11.25
2019-03-03T07:09:59.978Z,16.88
2019-03-03T07:10:59.882Z,16.88
2019-03-03T07:11:59.990Z,11.25
2019-03-03T07:12:59.852Z,11.25
2019-03-03T07:13:59.927Z,11.25
2019-03-03T07:14:59.834Z,11.25
2019-03-03T07:15:59.918Z,11.25
2019-03-03T07:16:59.817Z,11.25
2019-03-03T07:17:59.928Z,11.25
2019-03-03T07:18:59.838Z,16.88
2019-03-03T07:19:59.839Z,11.25
2019-03-03T07:20:59.767Z,11.25
2019-03-03T07:21:59.857Z,11.25
2019-03-03T07:22:59.782Z,11.25
2019-03-03T07:23:59.799Z,11.25
2019-03-03T07:24:59.740Z,11.25
2019-03-03T07:25:59.780Z,11.25
2019-03-03T07:26:59.701Z,16.88
2019-03-03T07:27:59.791Z,16.88
2019-03-03T07:28:59.700Z,16.88
2019-03-03T07:29:59.708Z,16.88
2019-03-03T07:30:59.663Z,16.88
2019-03-03T07:31:59.717Z,16.88
2019-03-03T07:32:59.636Z,16.88
2019-03-03T07:33:59.765Z,16.88
2019-03-03T07:34:59.607Z,16.88
2019-03-03T07:35:59.647Z,16.88
2019-03-03T07:36:59.648Z,16.88
2019-03-03T07:37:59.663Z,16.88
2019-03-03T07:38:59.605Z,16.88
2019-03-03T07:39:59.677Z,16.88
2019-03-03T07:40:59.541Z,22.50
2019-03-03T07:41:59.588Z,22.50
2019-03-03T07:42:59.518Z,28.12
2019-03-03T07:43:59.628Z,28.12
2019-03-03T07:44:59.514Z,28.12
2019-03-03T07:45:59.553Z,28.12
2019-03-03T07:46:59.505Z,28.12
2019-03-03T07:47:59.530Z,33.75
2019-03-03T07:48:59.551Z,28.12
2019-03-03T07:49:59.578Z,33.75
2019-03-03T07:50:59.443Z,28.12
2019-03-03T07:51:59.465Z,33.75
2019-03-03T07:52:59.428Z,33.75
2019-03-03T07:53:59.499Z,33.75
2019-03-03T07:54:59.439Z,33.75
2019-03-03T07:55:59.487Z,28.12
2019-03-03T07:56:59.393Z,28.12
2019-03-03T07:57:59.408Z,33.75
2019-03-03T07:58:59.347Z,28.12
2019-03-03T07:59:59.543Z,28.12
2019-03-03T08:00:59.327Z,28.12
2019-03-03T08:01:59.422Z,22.50
2019-03-03T08:02:59.313Z,28.12
2019-03-03T08:03:59.332Z,28.12
2019-03-03T08:04:59.423Z,28.12
2019-03-03T08:05:59.357Z,28.12
2019-03-03T08:06:59.281Z,28.12
2019-03-03T08:07:59.365Z,22.50
2019-03-03T08:08:59.270Z,22.50
2019-03-03T08:09:59.285Z,28.12
2019-03-03T08:10:59.230Z,28.12
2019-03-03T08:11:59.327Z,28.12
2019-03-03T08:13:08.736Z,28.12
2019-03-03T08:14:00.169Z,28.12
2019-03-03T08:14:59.274Z,28.12
2019-03-03T08:15:59.209Z,28.12
2019-03-03T08:16:59.222Z,22.50
2019-03-03T08:17:59.151Z,28.12
2019-03-03T08:18:59.233Z,28.12
2019-03-03T08:19:59.137Z,33.75
2019-03-03T08:20:59.517Z,39.38
2019-03-03T08:21:59.085Z,28.12
2019-03-03T08:24:00.362Z,22.50
2019-03-03T08:24:59.162Z,16.88
2019-03-03T08:25:59.066Z,22.50
2019-03-03T08:26:59.077Z,16.88
2019-03-03T08:27:59.018Z,16.88
2019-03-03T08:28:59.101Z,22.50
2019-03-03T08:29:59.001Z,16.88
2019-03-03T08:30:59.446Z,16.88
2019-03-03T08:31:58.980Z,22.50
2019-03-03T08:32:59.083Z,22.50
2019-03-03T08:33:58.946Z,16.88
2019-03-03T08:34:59.046Z,16.88
2019-03-03T08:35:58.943Z,22.50
2019-03-03T08:37:00.297Z,22.50
2019-03-03T08:37:58.915Z,16.88
2019-03-03T08:38:59.002Z,16.88
2019-03-03T08:39:58.966Z,16.88
2019-03-03T08:40:59.292Z,16.88
2019-03-03T08:41:58.852Z,16.88
2019-03-03T08:42:58.937Z,22.50
2019-03-03T08:43:58.878Z,22.50
2019-03-03T08:44:58.911Z,22.50
2019-03-03T08:45:58.838Z,22.50
2019-03-03T08:46:58.986Z,22.50
2019-03-03T08:47:58.799Z,28.12
2019-03-03T08:48:58.882Z,33.75
2019-03-03T08:49:58.816Z,33.75
2019-03-03T08:50:58.902Z,39.38
2019-03-03T08:51:58.739Z,39.38
2019-03-03T08:52:58.898Z,39.38
2019-03-03T08:53:58.772Z,39.38
2019-03-03T08:55:00.150Z,39.38
2019-03-03T08:55:58.702Z,39.38
2019-03-03T08:56:58.861Z,45.00
2019-03-03T08:57:58.758Z,45.00
2019-03-03T08:58:58.702Z,45.00
2019-03-03T08:59:58.653Z,50.62
2019-03-03T09:00:58.707Z,45.00
2019-03-03T09:01:58.720Z,45.00
2019-03-03T09:02:58.788Z,50.62
2019-03-03T09:03:58.627Z,45.00
2019-03-03T09:04:58.659Z,45.00
2019-03-03T09:05:58.587Z,39.38
2019-03-03T09:06:58.645Z,45.00
2019-03-03T09:07:58.604Z,39.38
2019-03-03T09:08:58.657Z,39.38
2019-03-03T09:09:58.568Z,39.38
2019-03-03T09:10:58.569Z,33.75
2019-03-03T09:11:58.551Z,39.38
2019-03-03T09:12:58.576Z,39.38
2019-03-03T09:13:58.513Z,45.00
2019-03-03T09:14:58.610Z,45.00
2019-03-03T09:15:58.475Z,45.00
2019-03-03T09:16:58.533Z,39.38
2019-03-03T09:17:58.462Z,39.38
2019-03-03T09:18:58.525Z,39.38
2019-03-03T09:19:58.486Z,56.25
2019-03-03T09:20:58.576Z,45.00
2019-03-03T09:21:58.422Z,39.38
2019-03-03T09:22:58.497Z,33.75
2019-03-03T09:23:58.390Z,39.38
2019-03-03T09:24:58.498Z,33.75
2019-03-03T09:25:58.371Z,33.75
2019-03-03T09:26:58.367Z,39.38
2019-03-03T09:27:58.408Z,33.75
2019-03-03T09:28:58.415Z,39.38
2019-03-03T09:29:58.377Z,33.75
2019-03-03T09:30:58.402Z,33.75
2019-03-03T09:31:58.327Z,33.75
2019-03-03T09:32:58.388Z,33.75
2019-03-03T09:33:58.302Z,33.75
2019-03-03T09:34:58.443Z,33.75
2019-03-03T09:35:58.257Z,33.75
2019-03-03T09:36:58.359Z,33.75
2019-03-03T09:37:58.279Z,39.38
2019-03-03T09:38:58.243Z,39.38
2019-03-03T09:39:58.225Z,45.00
2019-03-03T09:40:58.257Z,45.00
2019-03-03T09:41:58.189Z,39.38
2019-03-03T09:42:58.325Z,39.38
2019-03-03T09:43:58.264Z,39.38
2019-03-03T09:44:58.364Z,39.38
2019-03-03T09:45:58.137Z,39.38
2019-03-03T09:46:58.203Z,33.75
2019-03-03T09:47:58.131Z,39.38
2019-03-03T09:48:58.480Z,33.75
2019-03-03T09:49:58.187Z,28.12
2019-03-03T09:50:58.167Z,28.12
2019-03-03T09:51:58.071Z,28.12
2019-03-03T09:52:58.241Z,28.12
2019-03-03T10:20:21.870Z,39.38
2019-03-03T10:21:21.710Z,39.38
2019-03-03T10:23:22.862Z,39.38
2019-03-03T10:25:22.861Z,39.38
2019-03-03T10:26:21.669Z,39.38
2019-03-03T10:27:21.551Z,33.75
2019-03-03T10:28:21.610Z,33.75
2019-03-03T10:29:21.533Z,39.38
2019-03-03T10:30:22.385Z,39.38
2019-03-03T10:31:21.512Z,50.62
2019-03-03T10:33:22.837Z,33.75
2019-03-03T10:34:21.651Z,39.38
2019-03-03T10:35:21.466Z,45.00
2019-03-03T10:36:22.157Z,39.38
2019-03-03T10:37:21.429Z,45.00
2019-03-03T10:38:21.588Z,45.00
2019-03-03T10:39:21.431Z,33.75
2019-03-03T10:40:21.550Z,33.75
2019-03-03T10:41:21.488Z,33.75
2019-03-03T10:42:21.918Z,45.00
2019-03-03T10:43:21.389Z,39.38
2019-03-03T10:45:22.663Z,45.00
2019-03-03T10:46:23.017Z,33.75
2019-03-03T10:47:21.329Z,28.12
2019-03-03T10:49:22.460Z,56.25
2019-03-03T10:50:21.862Z,50.62
2019-03-03T10:51:21.310Z,56.25
2019-03-03T10:52:21.865Z,56.25
2019-03-03T10:53:21.257Z,45.00
2019-03-03T10:54:23.123Z,50.62
2019-03-03T10:55:21.234Z,50.62
2019-03-03T10:56:23.161Z,45.00
2019-03-03T10:57:21.264Z,50.62
2019-03-03T10:58:23.251Z,56.25
2019-03-03T10:59:21.192Z,50.62
2019-03-03T11:00:21.359Z,50.62
2019-03-03T11:01:21.160Z,61.88
2019-03-03T11:02:21.245Z,67.50
2019-03-03T11:03:21.177Z,56.25
2019-03-03T11:04:21.243Z,45.00
2019-03-03T11:05:21.125Z,39.38
2019-03-03T11:06:23.715Z,39.38
2019-03-03T11:07:21.144Z,45.00
2019-03-03T11:08:23.721Z,61.88
2019-03-03T11:09:21.142Z,61.88
2019-03-03T11:11:22.437Z,39.38
2019-03-03T11:12:21.214Z,33.75
2019-03-03T11:13:21.024Z,33.75
2019-03-03T11:14:23.671Z,33.75
2019-03-03T11:15:21.045Z,33.75
2019-03-03T11:16:23.775Z,33.75
2019-03-03T11:17:21.018Z,39.38
2019-03-03T11:19:22.266Z,50.62
2019-03-03T11:21:22.349Z,61.88
2019-03-03T11:22:24.124Z,56.25
2019-03-03T11:23:21.017Z,45.00
2019-03-03T11:25:22.385Z,39.38
2019-03-03T11:26:24.351Z,39.38
2019-03-03T11:27:20.933Z,45.00
2019-03-03T11:28:24.564Z,39.38
2019-03-03T11:29:20.866Z,45.00
2019-03-03T11:31:22.222Z,45.00
2019-03-03T11:32:24.603Z,39.38
2019-03-03T11:33:20.891Z,39.38
2019-03-03T11:34:24.630Z,28.12
2019-03-03T11:35:20.791Z,39.38
2019-03-03T11:36:24.740Z,50.62
2019-03-03T11:37:20.803Z,50.62
2019-03-03T11:38:24.883Z,56.25
2019-03-03T11:39:20.773Z,50.62
2019-03-03T11:41:20.902Z,56.25
2019-03-03T11:42:22.923Z,61.88
2019-03-03T11:43:20.745Z,56.25
2019-03-03T11:45:21.939Z,61.88
2019-03-03T11:46:20.711Z,56.25
2019-03-03T11:47:20.656Z,56.25
2019-03-03T11:48:20.780Z,73.12
2019-03-03T11:49:20.631Z,61.88
2019-03-03T11:50:20.739Z,78.75
2019-03-03T11:51:20.649Z,78.75
2019-03-03T11:52:20.688Z,56.25
2019-03-03T11:53:20.642Z,67.50
2019-03-03T11:54:20.681Z,56.25
2019-03-03T11:55:20.570Z,56.25
2019-03-03T11:56:20.692Z,73.12
2019-03-03T11:57:21.773Z,73.12
2019-03-03T11:58:20.631Z,73.12
2019-03-03T11:59:20.545Z,61.88
2019-03-03T12:26:33.846Z,56.25
2019-03-03T12:27:26.684Z,56.25
2019-03-03T12:28:26.602Z,45.00
2019-03-03T12:29:26.695Z,50.62
2019-03-03T12:30:28.545Z,56.25
2019-03-03T12:31:26.605Z,56.25
2019-03-03T12:32:26.575Z,56.25
2019-03-03T12:33:26.618Z,50.62
2019-03-03T12:34:26.534Z,56.25
2019-03-03T12:35:26.730Z,50.62
2019-03-03T12:36:26.515Z,50.62
2019-03-03T12:37:26.540Z,45.00
2019-03-03T12:38:26.489Z,39.38
2019-03-03T12:39:26.559Z,39.38
2019-03-03T12:40:26.502Z,50.62
2019-03-03T12:41:26.578Z,50.62
2019-03-03T12:42:26.681Z,67.50
2019-03-03T12:48:21.397Z,39.38
2019-03-03T12:49:21.346Z,33.75
2019-03-03T12:50:21.340Z,33.75
2019-03-03T12:51:21.324Z,33.75
2019-03-03T12:52:21.473Z,33.75
2019-03-03T12:53:21.309Z,45.00
2019-03-03T12:54:21.326Z,45.00
2019-03-03T12:55:21.290Z,39.38
2019-03-03T12:56:21.377Z,39.38
2019-03-03T12:57:21.258Z,39.38
2019-03-03T12:58:21.366Z,33.75
2019-03-03T12:59:21.270Z,33.75
2019-03-03T13:00:21.270Z,39.38
2019-03-03T13:01:21.242Z,45.00
2019-03-03T13:02:21.317Z,39.38
2019-03-03T13:03:21.191Z,45.00
2019-03-03T13:04:21.297Z,50.62
2019-03-03T13:05:21.168Z,56.25
2019-03-03T13:06:24.256Z,56.25
2019-03-03T13:07:21.145Z,39.38
2019-03-03T13:08:21.217Z,45.00
2019-03-03T13:09:21.127Z,45.00
2019-03-03T13:10:21.238Z,39.38
2019-03-03T13:11:21.107Z,39.38
2019-03-03T13:12:21.189Z,45.00
2019-03-03T13:13:21.080Z,39.38
2019-03-03T13:14:21.169Z,28.12
2019-03-03T13:15:21.062Z,28.12
2019-03-03T13:16:21.104Z,28.12
2019-03-03T13:17:21.047Z,28.12
2019-03-03T13:18:21.112Z,28.12
2019-03-03T13:19:21.009Z,28.12
2019-03-03T13:20:21.111Z,22.50
2019-03-03T13:21:21.023Z,22.50
2019-03-03T13:22:21.075Z,28.12
2019-03-03T13:23:21.059Z,22.50
2019-03-03T13:24:21.076Z,22.50
2019-03-03T13:25:20.961Z,22.50
2019-03-03T13:26:21.060Z,22.50
2019-03-03T13:27:21.014Z,22.50
2019-03-03T13:28:21.305Z,22.50
2019-03-03T13:29:20.952Z,22.50
2019-03-03T13:30:20.994Z,16.88
2019-03-03T13:31:20.891Z,22.50
2019-03-03T13:32:21.056Z,33.75
2019-03-03T13:33:20.906Z,33.75
2019-03-03T13:34:20.931Z,33.75
2019-03-03T13:35:20.839Z,39.38
2019-03-03T13:36:20.938Z,45.00
2019-03-03T13:37:20.882Z,45.00
2019-03-03T13:38:20.982Z,33.75
2019-03-03T13:39:20.819Z,39.38
2019-03-03T13:40:20.853Z,33.75
2019-03-03T13:41:20.807Z,33.75
2019-03-03T13:42:20.872Z,45.00
2019-03-03T13:43:20.844Z,50.62
2019-03-03T13:45:21.906Z,33.75
2019-03-03T13:46:20.779Z,33.75
2019-03-03T13:47:20.728Z,45.00
2019-03-03T13:48:20.841Z,39.38
2019-03-03T13:49:20.698Z,39.38
2019-03-03T13:50:20.692Z,45.00
2019-03-03T13:51:20.713Z,33.75
2019-03-03T13:52:20.730Z,45.00
2019-03-03T13:53:20.706Z,45.00
2019-03-03T13:54:20.735Z,45.00
2019-03-03T13:55:20.653Z,50.62
2019-03-03T13:57:21.719Z,45.00
2019-03-03T13:58:20.703Z,39.38
2019-03-03T13:59:20.655Z,33.75
2019-03-03T14:00:20.667Z,39.38
2019-03-03T14:01:20.571Z,33.75
2019-03-03T14:02:20.597Z,33.75
2019-03-03T14:03:20.570Z,28.12
2019-03-03T14:04:20.648Z,28.12
2019-03-03T14:05:20.511Z,28.12
2019-03-03T14:06:20.641Z,28.12
2019-03-03T14:07:20.565Z,28.12
2019-03-03T14:08:20.658Z,28.12
2019-03-03T14:09:20.556Z,28.12
2019-03-03T14:10:20.565Z,28.12
2019-03-03T14:11:20.520Z,22.50
2019-03-03T14:12:20.546Z,22.50
2019-03-03T14:13:20.517Z,22.50
2019-03-03T14:14:20.533Z,28.12
2019-03-03T14:15:20.447Z,28.12
2019-03-03T14:16:20.499Z,33.75
2019-03-03T14:17:20.474Z,28.12
2019-03-03T14:18:20.511Z,28.12
2019-03-03T14:19:20.408Z,28.12
2019-03-03T14:20:20.524Z,28.12
2019-03-03T14:21:20.347Z,28.12
2019-03-03T14:22:20.443Z,22.50